sensor_id;sensor_type;location;lat;lon;timestamp;pressure;altitude;pressure_sealevel;temperature;humidity
10127;BME280;13080;42.608;23.362;2023-03-03T00:00:28;151620.34;;;2.04;100.00
10127;BME280;13080;42.608;23.362;2023-03-03T00:02:56;151619.06;;;2.03;100.00
10127;BME280;13080;42.608;23.362;2023-03-03T00:05:26;151599.72;;;1.96;100.00
10127;BME280;13080;42.608;23.362;2023-03-03T00:07:53;151593.28;;;1.93;100.00
10127;BME280;13080;42.608;23.362;2023-03-03T00:10:20;151577.78;;;1.87;100.00
10127;BME280;13080;42.608;23.362;2023-03-03T00:12:49;151581.69;;;1.89;100.00
10127;BME280;13080;42.608;23.362;2023-03-03T00:15:17;151559.75;;;1.80;100.00
10127;BME280;13080;42.608;23.362;2023-03-03T00:17:45;151568.75;;;1.83;100.00
10127;BME280;13080;42.608;23.362;2023-03-03T00:20:34;151570.06;;;1.84;100.00
10127;BME280;13080;42.608;23.362;2023-03-03T00:23:19;151577.78;;;1.87;100.00
10127;BME280;13080;42.608;23.362;2023-03-03T00:25:50;151573.91;;;1.85;100.00
10127;BME280;13080;42.608;23.362;2023-03-03T00:28:28;151570.06;;;1.84;100.00
10127;BME280;13080;42.608;23.362;2023-03-03T00:30:56;151573.91;;;1.85;100.00
10127;BME280;13080;42.608;23.362;2023-03-03T00:33:27;151573.91;;;1.85;100.00
10127;BME280;13080;42.608;23.362;2023-03-03T00:35:59;151566.19;;;1.82;100.00
10127;BME280;13080;42.608;23.362;2023-03-03T00:38:35;151548.13;;;1.75;100.00
10127;BME280;13080;42.608;23.362;2023-03-03T00:41:13;151555.84;;;1.78;100.00
10127;BME280;13080;42.608;23.362;2023-03-03T00:43:43;151572.63;;;1.85;100.00
10127;BME280;13080;42.608;23.362;2023-03-03T00:46:14;151591.94;;;1.93;100.00
10127;BME280;13080;42.608;23.362;2023-03-03T00:48:42;151590.69;;;1.92;100.00
10127;BME280;13080;42.608;23.362;2023-03-03T00:51:19;151597.13;;;1.95;100.00
10127;BME280;13080;42.608;23.362;2023-03-03T00:53:49;151581.69;;;1.89;100.00
10127;BME280;13080;42.608;23.362;2023-03-03T00:56:16;151595.84;;;1.94;100.00
10127;BME280;13080;42.608;23.362;2023-03-03T00:58:44;151584.22;;;1.90;100.00
10127;BME280;13080;42.608;23.362;2023-03-03T01:01:13;151593.28;;;1.93;100.00
10127;BME280;13080;42.608;23.362;2023-03-03T01:03:40;151579.06;;;1.87;100.00
10127;BME280;13080;42.608;23.362;2023-03-03T01:06:06;151579.06;;;1.87;100.00
10127;BME280;13080;42.608;23.362;2023-03-03T01:08:33;151555.84;;;1.78;100.00
10127;BME280;13080;42.608;23.362;2023-03-03T01:11:03;151545.53;;;1.74;100.00
10127;BME280;13080;42.608;23.362;2023-03-03T01:13:33;151545.53;;;1.74;100.00
10127;BME280;13080;42.608;23.362;2023-03-03T01:16:03;151542.97;;;1.73;100.00
10127;BME280;13080;42.608;23.362;2023-03-03T01:18:30;151545.53;;;1.74;100.00
10127;BME280;13080;42.608;23.362;2023-03-03T01:20:57;151562.31;;;1.81;100.00
10127;BME280;13080;42.608;23.362;2023-03-03T01:23:24;151558.41;;;1.79;100.00
10127;BME280;13080;42.608;23.362;2023-03-03T01:25:51;151561.03;;;1.80;100.00
10127;BME280;13080;42.608;23.362;2023-03-03T01:28:17;151570.06;;;1.84;100.00
10127;BME280;13080;42.608;23.362;2023-03-03T01:30:44;151568.75;;;1.83;100.00
10127;BME280;13080;42.608;23.362;2023-03-03T01:33:12;151580.34;;;1.88;100.00
10127;BME280;13080;42.608;23.362;2023-03-03T01:35:42;151591.94;;;1.93;100.00
10127;BME280;13080;42.608;23.362;2023-03-03T01:38:09;151572.63;;;1.85;100.00
10127;BME280;13080;42.608;23.362;2023-03-03T01:40:36;151564.91;;;1.82;100.00
10127;BME280;13080;42.608;23.362;2023-03-03T01:43:03;151561.03;;;1.80;100.00
10127;BME280;13080;42.608;23.362;2023-03-03T01:45:31;151558.41;;;1.79;100.00
10127;BME280;13080;42.608;23.362;2023-03-03T01:48:09;151554.56;;;1.78;100.00
10127;BME280;13080;42.608;23.362;2023-03-03T01:50:47;151573.91;;;1.85;100.00
10127;BME280;13080;42.608;23.362;2023-03-03T01:53:18;151555.84;;;1.78;100.00
10127;BME280;13080;42.608;23.362;2023-03-03T01:55:47;151541.69;;;1.73;100.00
10127;BME280;13080;42.608;23.362;2023-03-03T01:58:20;151541.69;;;1.73;100.00
10127;BME280;13080;42.608;23.362;2023-03-03T02:00:50;151542.97;;;1.73;100.00
10127;BME280;13080;42.608;23.362;2023-03-03T02:03:19;151524.94;;;1.66;100.00
10127;BME280;13080;42.608;23.362;2023-03-03T02:05:50;151513.28;;;1.61;100.00
10127;BME280;13080;42.608;23.362;2023-03-03T02:08:21;151509.44;;;1.60;100.00
10127;BME280;13080;42.608;23.362;2023-03-03T02:10:51;151518.44;;;1.63;100.00
10127;BME280;13080;42.608;23.362;2023-03-03T02:13:19;151509.44;;;1.60;100.00
10127;BME280;13080;42.608;23.362;2023-03-03T02:15:46;151539.09;;;1.72;100.00
10127;BME280;13080;42.608;23.362;2023-03-03T02:18:14;151537.81;;;1.71;100.00
10127;BME280;13080;42.608;23.362;2023-03-03T02:20:50;151537.81;;;1.71;100.00
10127;BME280;13080;42.608;23.362;2023-03-03T02:23:22;151530.03;;;1.68;100.00
10127;BME280;13080;42.608;23.362;2023-03-03T02:26:08;151549.41;;;1.76;100.00
10127;BME280;13080;42.608;23.362;2023-03-03T02:28:37;151539.09;;;1.72;100.00
10127;BME280;13080;42.608;23.362;2023-03-03T02:31:06;151542.97;;;1.73;100.00
10127;BME280;13080;42.608;23.362;2023-03-03T02:33:35;151546.81;;;1.75;100.00
10127;BME280;13080;42.608;23.362;2023-03-03T02:36:02;151545.53;;;1.74;100.00
10127;BME280;13080;42.608;23.362;2023-03-03T02:38:31;151539.09;;;1.72;100.00
10127;BME280;13080;42.608;23.362;2023-03-03T02:41:08;151526.22;;;1.66;100.00
10127;BME280;13080;42.608;23.362;2023-03-03T02:43:43;151522.31;;;1.65;100.00
10127;BME280;13080;42.608;23.362;2023-03-03T02:46:11;151527.50;;;1.67;100.00
10127;BME280;13080;42.608;23.362;2023-03-03T02:48:38;151532.66;;;1.69;100.00
10127;BME280;13080;42.608;23.362;2023-03-03T02:51:05;151549.41;;;1.76;100.00
10127;BME280;13080;42.608;23.362;2023-03-03T02:53:32;151535.22;;;1.70;100.00
10127;BME280;13080;42.608;23.362;2023-03-03T02:55:59;151533.94;;;1.70;100.00
10127;BME280;13080;42.608;23.362;2023-03-03T02:58:27;151531.38;;;1.69;100.00
10127;BME280;13080;42.608;23.362;2023-03-03T03:00:53;151540.38;;;1.72;100.00
10127;BME280;13080;42.608;23.362;2023-03-03T03:03:20;151540.38;;;1.72;100.00
10127;BME280;13080;42.608;23.362;2023-03-03T03:05:47;151558.41;;;1.79;100.00
10127;BME280;13080;42.608;23.362;2023-03-03T03:08:14;151554.56;;;1.78;100.00
10127;BME280;13080;42.608;23.362;2023-03-03T03:10:41;151553.31;;;1.77;100.00
10127;BME280;13080;42.608;23.362;2023-03-03T03:13:07;151533.94;;;1.70;100.00
10127;BME280;13080;42.608;23.362;2023-03-03T03:15:35;151557.13;;;1.79;100.00
10127;BME280;13080;42.608;23.362;2023-03-03T03:18:02;151548.13;;;1.75;100.00
10127;BME280;13080;42.608;23.362;2023-03-03T03:20:29;151545.53;;;1.74;100.00
10127;BME280;13080;42.608;23.362;2023-03-03T03:22:56;151558.41;;;1.79;100.00
10127;BME280;13080;42.608;23.362;2023-03-03T03:25:23;151551.97;;;1.77;100.00
10127;BME280;13080;42.608;23.362;2023-03-03T03:27:49;151546.81;;;1.75;100.00
10127;BME280;13080;42.608;23.362;2023-03-03T03:30:16;151545.53;;;1.74;100.00
10127;BME280;13080;42.608;23.362;2023-03-03T03:32:46;151545.53;;;1.74;100.00
10127;BME280;13080;42.608;23.362;2023-03-03T03:35:13;151546.81;;;1.75;100.00
10127;BME280;13080;42.608;23.362;2023-03-03T03:37:41;151536.53;;;1.71;100.00
10127;BME280;13080;42.608;23.362;2023-03-03T03:40:09;151549.41;;;1.76;100.00
10127;BME280;13080;42.608;23.362;2023-03-03T03:42:36;151523.59;;;1.65;100.00
10127;BME280;13080;42.608;23.362;2023-03-03T03:45:05;151519.78;;;1.64;100.00
10127;BME280;13080;42.608;23.362;2023-03-03T03:47:31;151517.16;;;1.63;100.00
10127;BME280;13080;42.608;23.362;2023-03-03T03:50:00;151503.00;;;1.57;100.00
10127;BME280;13080;42.608;23.362;2023-03-03T03:52:26;151501.69;;;1.57;100.00
10127;BME280;13080;42.608;23.362;2023-03-03T03:54:53;151504.28;;;1.58;100.00
10127;BME280;13080;42.608;23.362;2023-03-03T03:57:20;151512.00;;;1.61;100.00
10127;BME280;13080;42.608;23.362;2023-03-03T03:59:48;151519.78;;;1.64;100.00
10127;BME280;13080;42.608;23.362;2023-03-03T04:02:15;151496.56;;;1.55;100.00
10127;BME280;13080;42.608;23.362;2023-03-03T04:04:42;151481.06;;;1.49;100.00
10127;BME280;13080;42.608;23.362;2023-03-03T04:07:10;151486.25;;;1.51;100.00
10127;BME280;13080;42.608;23.362;2023-03-03T04:09:37;151500.41;;;1.56;100.00
10127;BME280;13080;42.608;23.362;2023-03-03T04:12:04;151472.03;;;1.45;100.00
10127;BME280;13080;42.608;23.362;2023-03-03T04:14:31;151451.44;;;1.37;100.00
10127;BME280;13080;42.608;23.362;2023-03-03T04:16:58;151451.44;;;1.37;100.00
10127;BME280;13080;42.608;23.362;2023-03-03T04:19:24;151459.16;;;1.40;100.00
10127;BME280;13080;42.608;23.362;2023-03-03T04:21:51;151448.81;;;1.36;100.00
10127;BME280;13080;42.608;23.362;2023-03-03T04:24:19;151466.88;;;1.43;100.00
10127;BME280;13080;42.608;23.362;2023-03-03T04:26:46;151446.28;;;1.35;100.00
10127;BME280;13080;42.608;23.362;2023-03-03T04:29:13;151439.78;;;1.32;100.00
10127;BME280;13080;42.608;23.362;2023-03-03T04:31:39;151439.78;;;1.32;100.00
10127;BME280;13080;42.608;23.362;2023-03-03T04:34:06;151451.44;;;1.37;100.00
10127;BME280;13080;42.608;23.362;2023-03-03T04:36:33;151457.88;;;1.39;100.00
10127;BME280;13080;42.608;23.362;2023-03-03T04:39:00;151466.88;;;1.43;100.00
10127;BME280;13080;42.608;23.362;2023-03-03T04:41:28;151466.88;;;1.43;100.00
10127;BME280;13080;42.608;23.362;2023-03-03T04:43:54;151461.72;;;1.41;100.00
10127;BME280;13080;42.608;23.362;2023-03-03T04:46:21;151459.16;;;1.40;100.00
10127;BME280;13080;42.608;23.362;2023-03-03T04:48:48;151466.88;;;1.43;100.00
10127;BME280;13080;42.608;23.362;2023-03-03T04:51:14;151465.59;;;1.42;100.00
10127;BME280;13080;42.608;23.362;2023-03-03T04:53:43;151446.28;;;1.35;100.00
10127;BME280;13080;42.608;23.362;2023-03-03T04:56:09;151434.69;;;1.30;100.00
10127;BME280;13080;42.608;23.362;2023-03-03T04:58:40;151448.81;;;1.36;100.00
10127;BME280;13080;42.608;23.362;2023-03-03T05:01:11;151438.50;;;1.32;100.00
10127;BME280;13080;42.608;23.362;2023-03-03T05:03:38;151466.88;;;1.43;100.00
10127;BME280;13080;42.608;23.362;2023-03-03T05:06:05;151459.16;;;1.40;100.00
10127;BME280;13080;42.608;23.362;2023-03-03T05:08:32;151470.75;;;1.44;100.00
10127;BME280;13080;42.608;23.362;2023-03-03T05:10:59;151478.47;;;1.48;100.00
10127;BME280;13080;42.608;23.362;2023-03-03T05:13:26;151477.19;;;1.47;100.00
10127;BME280;13080;42.608;23.362;2023-03-03T05:15:55;151474.63;;;1.46;100.00
10127;BME280;13080;42.608;23.362;2023-03-03T05:18:23;151465.59;;;1.42;100.00
10127;BME280;13080;42.608;23.362;2023-03-03T05:20:51;151474.63;;;1.46;100.00
10127;BME280;13080;42.608;23.362;2023-03-03T05:23:18;151477.19;;;1.47;100.00
10127;BME280;13080;42.608;23.362;2023-03-03T05:25:46;151496.56;;;1.55;100.00
10127;BME280;13080;42.608;23.362;2023-03-03T05:28:14;151519.78;;;1.64;100.00
10127;BME280;13080;42.608;23.362;2023-03-03T05:30:40;151535.22;;;1.70;100.00
10127;BME280;13080;42.608;23.362;2023-03-03T05:33:11;151536.53;;;1.71;100.00
10127;BME280;13080;42.608;23.362;2023-03-03T05:35:38;151540.38;;;1.72;100.00
10127;BME280;13080;42.608;23.362;2023-03-03T05:38:05;151544.25;;;1.74;100.00
10127;BME280;13080;42.608;23.362;2023-03-03T05:40:32;151548.13;;;1.75;100.00
10127;BME280;13080;42.608;23.362;2023-03-03T05:42:59;151562.31;;;1.81;100.00
10127;BME280;13080;42.608;23.362;2023-03-03T05:45:26;151577.78;;;1.87;100.00
10127;BME280;13080;42.608;23.362;2023-03-03T05:47:53;151573.91;;;1.85;100.00
10127;BME280;13080;42.608;23.362;2023-03-03T05:50:22;151594.56;;;1.94;100.00
10127;BME280;13080;42.608;23.362;2023-03-03T05:52:49;151576.50;;;1.86;100.00
10127;BME280;13080;42.608;23.362;2023-03-03T05:55:17;151608.72;;;1.99;100.00
10127;BME280;13080;42.608;23.362;2023-03-03T05:57:44;151621.66;;;2.04;100.00
10127;BME280;13080;42.608;23.362;2023-03-03T06:00:13;151642.25;;;2.13;100.00
10127;BME280;13080;42.608;23.362;2023-03-03T06:02:40;151652.59;;;2.17;100.00
10127;BME280;13080;42.608;23.362;2023-03-03T06:05:08;151655.19;;;2.18;100.00
10127;BME280;13080;42.608;23.362;2023-03-03T06:07:37;151647.44;;;2.15;100.00
10127;BME280;13080;42.608;23.362;2023-03-03T06:10:05;151669.38;;;2.23;100.00
10127;BME280;13080;42.608;23.362;2023-03-03T06:12:32;151692.59;;;2.33;100.00
10127;BME280;13080;42.608;23.362;2023-03-03T06:14:59;151702.91;;;2.37;100.00
10127;BME280;13080;42.608;23.362;2023-03-03T06:17:25;151718.41;;;2.43;100.00
10127;BME280;13080;42.608;23.362;2023-03-03T06:19:52;151719.69;;;2.43;100.00
10127;BME280;13080;42.608;23.362;2023-03-03T06:22:20;151718.41;;;2.43;100.00
10127;BME280;13080;42.608;23.362;2023-03-03T06:24:50;151753.25;;;2.57;100.00
10127;BME280;13080;42.608;23.362;2023-03-03T06:27:19;151749.38;;;2.55;100.00
10127;BME280;13080;42.608;23.362;2023-03-03T06:29:46;151758.41;;;2.59;100.00
10127;BME280;13080;42.608;23.362;2023-03-03T06:32:12;151739.03;;;2.51;100.00
10127;BME280;13080;42.608;23.362;2023-03-03T06:34:39;151759.69;;;2.59;100.00
10127;BME280;13080;42.608;23.362;2023-03-03T06:37:06;151753.25;;;2.57;100.00
10127;BME280;13080;42.608;23.362;2023-03-03T06:39:33;151762.31;;;2.60;100.00
10127;BME280;13080;42.608;23.362;2023-03-03T06:42:01;151754.53;;;2.57;100.00
10127;BME280;13080;42.608;23.362;2023-03-03T06:44:28;151764.88;;;2.61;100.00
10127;BME280;13080;42.608;23.362;2023-03-03T06:46:54;151784.19;;;2.69;100.00
10127;BME280;13080;42.608;23.362;2023-03-03T06:49:23;151777.75;;;2.66;100.00
10127;BME280;13080;42.608;23.362;2023-03-03T06:51:50;151777.75;;;2.66;100.00
10127;BME280;13080;42.608;23.362;2023-03-03T06:54:18;151775.19;;;2.65;100.00
10127;BME280;13080;42.608;23.362;2023-03-03T06:56:45;151810.03;;;2.79;100.00
10127;BME280;13080;42.608;23.362;2023-03-03T06:59:15;151838.44;;;2.90;100.00
10127;BME280;13080;42.608;23.362;2023-03-03T07:01:45;151842.31;;;2.92;100.00
10127;BME280;13080;42.608;23.362;2023-03-03T07:04:23;151869.44;;;3.03;100.00
10127;BME280;13080;42.608;23.362;2023-03-03T07:06:53;151884.91;;;3.09;100.00
10127;BME280;13080;42.608;23.362;2023-03-03T07:09:22;151895.25;;;3.13;100.00
10127;BME280;13080;42.608;23.362;2023-03-03T07:11:49;151904.28;;;3.17;100.00
10127;BME280;13080;42.608;23.362;2023-03-03T07:14:19;151912.03;;;3.20;100.00
10127;BME280;13080;42.608;23.362;2023-03-03T07:16:46;151919.75;;;3.23;100.00
10127;BME280;13080;42.608;23.362;2023-03-03T07:19:17;151913.31;;;3.20;100.00
10127;BME280;13080;42.608;23.362;2023-03-03T07:21:46;151905.56;;;3.17;100.00
10127;BME280;13080;42.608;23.362;2023-03-03T07:24:23;151891.34;;;3.11;100.00
10127;BME280;13080;42.608;23.362;2023-03-03T07:26:51;151902.97;;;3.16;100.00
10127;BME280;13080;42.608;23.362;2023-03-03T07:29:23;151912.03;;;3.20;100.00
10127;BME280;13080;42.608;23.362;2023-03-03T07:31:52;151893.97;;;3.12;100.00
10127;BME280;13080;42.608;23.362;2023-03-03T07:34:22;151882.34;;;3.08;100.00
10127;BME280;13080;42.608;23.362;2023-03-03T07:36:52;151883.63;;;3.08;100.00
10127;BME280;13080;42.608;23.362;2023-03-03T07:39:30;151861.66;;;3.00;100.00
10127;BME280;13080;42.608;23.362;2023-03-03T07:42:08;151888.78;;;3.10;100.00
10127;BME280;13080;42.608;23.362;2023-03-03T07:44:41;151865.56;;;3.01;100.00
10127;BME280;13080;42.608;23.362;2023-03-03T07:47:18;151886.22;;;3.09;100.00
10127;BME280;13080;42.608;23.362;2023-03-03T07:49:45;151886.22;;;3.09;100.00
10127;BME280;13080;42.608;23.362;2023-03-03T07:52:22;151891.34;;;3.11;100.00
10127;BME280;13080;42.608;23.362;2023-03-03T07:54:49;151902.97;;;3.16;100.00
10127;BME280;13080;42.608;23.362;2023-03-03T07:57:21;151906.84;;;3.18;100.00
10127;BME280;13080;42.608;23.362;2023-03-03T07:59:51;151914.63;;;3.21;100.00
10127;BME280;13080;42.608;23.362;2023-03-03T08:02:38;151932.69;;;3.28;100.00
10127;BME280;13080;42.608;23.362;2023-03-03T08:05:27;151919.75;;;3.23;100.00
10127;BME280;13080;42.608;23.362;2023-03-03T08:08:09;151939.16;;;3.30;100.00
10127;BME280;13080;42.608;23.362;2023-03-03T08:10:42;151994.69;;;3.52;100.00
10127;BME280;13080;42.608;23.362;2023-03-03T08:13:16;151967.56;;;3.42;100.00
10127;BME280;13080;42.608;23.362;2023-03-03T08:15:45;151933.97;;;3.28;100.00
10127;BME280;13080;42.608;23.362;2023-03-03T08:18:24;151948.16;;;3.34;100.00
10127;BME280;13080;42.608;23.362;2023-03-03T08:20:55;151930.09;;;3.27;100.00
10127;BME280;13080;42.608;23.362;2023-03-03T08:23:23;151937.88;;;3.30;100.00
10127;BME280;13080;42.608;23.362;2023-03-03T08:25:50;151943.03;;;3.32;100.00
10127;BME280;13080;42.608;23.362;2023-03-03T08:28:18;151932.69;;;3.28;100.00
10127;BME280;13080;42.608;23.362;2023-03-03T08:30:47;151936.53;;;3.29;100.00
